Ithaca, Ohio
Current Conditions -  °F | °C
As of 2:55 AM on Thursday 27 Nov 2014 (Local Time) from KVES Reporting Station
Overcast Overcast  
Wind Chill: 19°   Ceiling: 1400
Heat Index: 28°   Visibility: 10mi
Dew Point: 28°   Wind: 10mph
Humidity: 100%   Direction: 350°N
Pressure: 30.08"   Gusts: NA
Location:  39.9886°N, 84.5328°W
Report Text: KVES 270755Z AUTO 35009KT 10SM OVC014 M02/M02 A3008 RMK AO2
Loading
Personal Weather Stations






























Interactive Weather Map New forecast layout! Learn more

10-Day Weather Forecast

Advertisements
Track Severe Weather on mobile